Time;durP1;ratioP1;P1;durP2;ratioP2;P2;SDS_P1;SDS_P2;PMS_P1;PMS_P2;Temp;Humidity;BMP_temperature;BMP_pressure;BME280_temperature;BME280_humidity;BME280_pressure;Samples;Min_cycle;Max_cycle;Signal;HPM_P1;HPM_P2
2022/03/28 00:02:48;;;;;;;1999.90;999.90;;;;;;;8.38;61.53;102137.75;15466502;28;20054;-60
2022/03/28 00:10:22;;;;;;;1999.90;999.90;;;;;;;8.32;61.38;102120.19;15474924;28;20488;-58
2022/03/28 00:17:54;;;;;;;1999.90;999.90;;;;;;;8.25;61.21;102118.84;15474223;28;20101;-58
2022/03/28 00:25:36;;;;;;;1999.90;999.90;;;;;;;8.13;61.65;102121.09;15450465;28;20121;-59
2022/03/28 00:33:11;;;;;;;1999.90;999.90;;;;;;;7.81;62.45;102106.47;15522396;28;20069;-59
2022/03/28 00:40:47;;;;;;;1999.90;999.90;;;;;;;7.83;62.99;102103.41;15431515;28;20046;-58
2022/03/28 00:48:21;;;;;;;1999.90;999.90;;;;;;;7.80;61.97;102098.38;15490628;28;20042;-58
2022/03/28 00:55:57;;;;;;;1999.90;999.90;;;;;;;7.71;62.66;102087.03;15449868;28;20057;-56
2022/03/28 01:03:33;;;;;;;1999.90;999.90;;;;;;;7.59;63.41;102068.97;15451529;28;20055;-58
2022/03/28 01:11:09;;;;;;;1999.90;999.90;;;;;;;7.62;63.01;102072.03;15495598;28;20463;-57
2022/03/28 01:18:48;;;;;;;1999.90;999.90;;;;;;;7.67;63.94;102055.34;15514322;28;20121;-57
2022/03/28 01:26:22;;;;;;;1999.90;999.90;;;;;;;7.72;63.05;102044.22;15513196;28;20523;-58
2022/03/28 01:33:54;;;;;;;1999.90;999.90;;;;;;;7.63;63.58;102043.13;15514077;28;20126;-59
2022/03/28 01:41:30;;;;;;;1999.90;999.90;;;;;;;7.50;64.01;102036.22;15481731;28;20404;-58
2022/03/28 01:49:02;;;;;;;1999.90;999.90;;;;;;;7.38;64.49;102024.56;15513951;28;20066;-59
2022/03/28 01:56:36;;;;;;;1999.90;999.90;;;;;;;7.40;64.47;102011.25;15505083;22;20042;-61
2022/03/28 02:04:11;;;;;;;1999.90;999.90;;;;;;;7.27;64.58;102009.03;15555193;28;20053;-60
2022/03/28 02:11:45;;;;;;;1999.90;999.90;;;;;;;7.24;64.49;102009.59;15556682;28;20129;-60
2022/03/28 02:19:20;;;;;;;1999.90;999.90;;;;;;;7.20;64.27;102001.00;15556179;28;20559;-62
2022/03/28 02:26:56;;;;;;;1999.90;999.90;;;;;;;7.15;64.99;101992.66;15555189;28;20457;-62
2022/03/28 02:34:43;;;;;;;1999.90;999.90;;;;;;;7.00;65.62;101986.31;15541894;28;20060;-60
2022/03/28 02:42:16;;;;;;;1999.90;999.90;;;;;;;7.11;65.12;101990.72;15540660;28;20050;-62
2022/03/28 02:49:51;;;;;;;1999.90;999.90;;;;;;;6.87;65.48;101990.44;15553766;28;20065;-60
2022/03/28 02:57:24;;;;;;;1999.90;999.90;;;;;;;6.87;64.51;101979.34;15554582;28;20049;-62
2022/03/28 03:04:57;;;;;;;1999.90;999.90;;;;;;;6.70;64.67;101968.53;15553947;28;20045;-61
2022/03/28 03:12:33;;;;;;;1999.90;999.90;;;;;;;6.54;65.01;101966.84;15553317;28;20113;-61
2022/03/28 03:20:08;;;;;;;1999.90;999.90;;;;;;;6.57;65.36;101955.22;15552031;28;20336;-62
2022/03/28 03:27:44;;;;;;;1999.90;999.90;;;;;;;6.49;64.89;101947.44;15550714;28;20108;-62
2022/03/28 03:35:16;;;;;;;1999.90;999.90;;;;;;;6.25;65.95;101944.34;15517521;28;20125;-60
2022/03/28 03:42:50;;;;;;;1999.90;999.90;;;;;;;6.13;66.08;101932.66;15530732;28;20076;-61
2022/03/28 03:50:22;;;;;;;1999.90;999.90;;;;;;;5.95;66.94;101925.72;15549997;28;20351;-62
2022/03/28 03:57:55;;;;;;;1999.90;999.90;;;;;;;6.00;67.06;101922.94;15550279;28;20045;-61
2022/03/28 04:05:30;;;;;;;1999.90;999.90;;;;;;;6.04;67.22;101919.38;15539567;28;20085;-62
2022/03/28 04:13:07;;;;;;;1999.90;999.90;;;;;;;6.10;68.62;101908.28;15500621;28;20046;-62
2022/03/28 04:20:39;;;;;;;1999.90;999.90;;;;;;;6.03;69.24;101889.97;15542754;28;20050;-62
2022/03/28 04:28:16;;;;;;;1999.90;999.90;;;;;;;6.08;68.32;101890.00;15522243;28;20490;-62
2022/03/28 04:35:49;;;;;;;1999.90;999.90;;;;;;;6.06;67.76;101908.84;15545984;28;20049;-60
2022/03/28 04:43:23;;;;;;;1999.90;999.90;;;;;;;5.85;68.78;101911.81;15544606;28;20046;-60
2022/03/28 04:50:55;;;;;;;1999.90;999.90;;;;;;;5.86;68.86;101896.84;15513152;28;20038;-63
2022/03/28 04:58:31;;;;;;;1999.90;999.90;;;;;;;6.06;68.96;101888.63;15528180;28;20050;-62
2022/03/28 05:06:04;;;;;;;1999.90;999.90;;;;;;;6.07;69.21;101893.03;15547375;28;20053;-61
2022/03/28 05:13:37;;;;;;;1999.90;999.90;;;;;;;6.00;69.59;101884.16;15549418;28;20569;-59
2022/03/28 05:21:09;;;;;;;1999.90;999.90;;;;;;;6.44;68.82;101890.03;15541451;28;20046;-60
2022/03/28 05:28:44;;;;;;;1999.90;999.90;;;;;;;7.35;66.08;101888.22;15502111;28;20486;-61
2022/03/28 05:36:17;;;;;;;1999.90;999.90;;;;;;;7.91;63.86;101885.16;15546792;28;20046;-60
2022/03/28 05:43:50;;;;;;;1999.90;999.90;;;;;;;8.13;63.72;101880.06;15530505;28;20043;-61
2022/03/28 05:51:23;;;;;;;1999.90;999.90;;;;;;;8.68;62.60;101867.66;15526522;28;20129;-61
2022/03/28 05:58:59;;;;;;;1999.90;999.90;;;;;;;9.11;61.82;101872.53;15533869;28;20536;-60
2022/03/28 06:06:31;;;;;;;1999.90;999.90;;;;;;;9.09;62.84;101858.09;15537298;28;20045;-62
2022/03/28 06:14:05;;;;;;;1999.90;999.90;;;;;;;9.30;62.54;101865.06;15534068;28;20054;-63
2022/03/28 06:21:37;;;;;;;1999.90;999.90;;;;;;;9.59;62.85;101856.63;15545425;28;20421;-62
2022/03/28 06:29:11;;;;;;;1999.90;999.90;;;;;;;10.11;63.17;101850.03;15520861;28;20499;-62
2022/03/28 06:36:44;;;;;;;1999.90;999.90;;;;;;;11.71;60.01;101846.78;15521807;28;20046;-61
2022/03/28 06:44:18;;;;;;;;;;;;;;;13.22;56.37;101838.50;15536842;28;20061;-61
2022/03/28 06:51:50;;;;;;;1999.90;999.90;;;;;;;13.32;56.40;101833.78;15506490;28;20448;-59
2022/03/28 06:59:24;;;;;;;1999.90;999.90;;;;;;;13.90;55.16;101824.19;15486468;28;20403;-60
2022/03/28 07:06:56;;;;;;;1999.90;999.90;;;;;;;14.34;54.29;101821.03;15490010;28;20042;-61
2022/03/28 07:14:29;;;;;;;1999.90;999.90;;;;;;;14.74;53.07;101806.78;15516650;28;20621;-59
2022/03/28 07:22:05;;;;;;;1999.90;999.90;;;;;;;15.04;52.38;101798.41;15509444;28;20050;-61
2022/03/28 07:29:45;;;;;;;1999.90;999.90;;;;;;;15.80;51.01;101801.94;15515453;28;20057;-60
2022/03/28 07:37:28;;;;;;;1999.90;999.90;;;;;;;16.51;48.73;101792.53;15550791;28;20125;-60
2022/03/28 07:45:14;;;;;;;1999.90;999.90;;;;;;;17.97;47.04;101786.13;15489471;28;20161;-60
2022/03/28 07:52:51;;;;;;;1999.90;999.90;;;;;;;17.66;46.38;101786.78;15489731;28;20560;-60
2022/03/28 08:00:44;;;;;;;1999.90;999.90;;;;;;;18.45;44.97;101787.13;15535392;28;20041;-56
2022/03/28 08:08:36;;;;;;;;;;;;;;;17.93;45.58;101781.56;15536535;28;20136;-56
2022/03/28 08:16:18;;;;;;;1999.90;999.90;;;;;;;17.62;46.50;101766.09;15537883;28;19921;-58
2022/03/28 08:23:54;;;;;;;1999.90;999.90;;;;;;;17.45;46.29;101767.16;15532197;28;20075;-56
2022/03/28 08:31:34;;;;;;;1999.90;999.90;;;;;;;18.43;42.09;101767.69;15528277;28;20495;-57
2022/03/28 08:39:11;;;;;;;1999.90;999.90;;;;;;;17.93;41.81;101767.47;15509310;28;20061;-54
2022/03/28 08:46:55;;;;;;;1999.90;999.90;;;;;;;18.90;39.74;101744.34;15514241;28;20137;-59
2022/03/28 08:54:30;;;;;;;1999.90;999.90;;;;;;;19.91;37.17;101728.53;15530016;28;20050;-61
2022/03/28 09:02:04;;;;;;;1999.90;999.90;;;;;;;20.68;34.82;101734.09;15528865;28;20182;-57
2022/03/28 09:09:37;;;;;;;1999.90;999.90;;;;;;;20.05;36.17;101722.31;15523471;28;20085;-57
2022/03/28 09:17:13;;;;;;;1999.90;999.90;;;;;;;20.79;35.00;101714.44;15529133;28;20101;-55
2022/03/28 09:24:46;;;;;;;1999.90;999.90;;;;;;;20.93;32.99;101699.66;15524240;28;20049;-57
2022/03/28 09:32:23;;;;;;;1999.90;999.90;;;;;;;22.02;31.37;101690.28;15531301;28;20046;-55
2022/03/28 09:39:56;;;;;;;1999.90;999.90;;;;;;;21.69;32.50;101685.41;15511166;28;20042;-52
2022/03/28 09:47:31;;;;;;;1999.90;999.90;;;;;;;22.79;30.63;101672.38;15528937;28;20145;-56
2022/03/28 09:55:06;;;;;;;1999.90;999.90;;;;;;;23.44;30.66;101680.19;15543413;28;20367;-56
2022/03/28 10:02:40;;;;;;;1999.90;999.90;;;;;;;24.16;29.52;101669.91;15525506;28;20038;-56
2022/03/28 10:10:12;;;;;;;1999.90;999.90;;;;;;;22.94;29.74;101654.25;15519248;28;20125;-56
2022/03/28 10:17:47;;;;;;;1999.90;999.90;;;;;;;23.63;29.09;101647.75;15525211;28;20042;-58
2022/03/28 10:25:23;;;;;;;1999.90;999.90;;;;;;;21.70;31.48;101655.81;15511659;28;20057;-57
2022/03/28 10:33:14;;;;;;;1999.90;999.90;;;;;;;21.98;30.21;101655.31;15520894;28;20043;-58
2022/03/28 10:41:03;;;;;;;1999.90;999.90;;;;;;;22.84;31.43;101622.88;15553827;28;20070;-56
2022/03/28 10:48:42;;;;;;;1999.90;999.90;;;;;;;24.63;28.43;101633.75;15517820;28;20085;-57
2022/03/28 10:56:17;;;;;;;1999.90;999.90;;;;;;;24.40;28.35;101608.47;15535154;28;20522;-56
2022/03/28 11:04:16;;;;;;;1999.90;999.90;;;;;;;25.04;28.17;101600.69;15511589;28;20043;-59
2022/03/28 11:12:00;;;;;;;1999.90;999.90;;;;;;;25.85;27.48;101590.19;15525382;28;20466;-58
2022/03/28 11:19:34;;;;;;;1999.90;999.90;;;;;;;24.99;27.30;101580.28;15550158;28;20509;-58
2022/03/28 11:27:10;;;;;;;1999.90;999.90;;;;;;;24.79;28.32;101568.47;15510184;28;20093;-57
2022/03/28 11:34:50;;;;;;;1999.90;999.90;;;;;;;26.27;27.02;101553.94;15529286;28;20053;-54
2022/03/28 11:42:26;;;;;;;1999.90;999.90;;;;;;;25.76;27.63;101546.16;15548050;28;20046;-52
2022/03/28 11:50:03;;;;;;;1999.90;999.90;;;;;;;24.77;27.28;101523.22;15529315;28;20045;-56
2022/03/28 12:05:29;;;;;;;1999.90;999.90;;;;;;;25.86;28.38;101508.91;15532318;28;20488;-58
2022/03/28 12:13:05;;;;;;;1999.90;999.90;;;;;;;26.67;26.93;101482.84;15544611;28;20137;-55
2022/03/28 12:20:40;;;;;;;1999.90;999.90;;;;;;;26.80;26.89;101469.63;15549695;28;20171;-58
2022/03/28 12:28:15;;;;;;;1999.90;999.90;;;;;;;25.21;28.04;101453.34;15529250;28;20156;-55
2022/03/28 12:35:52;;;;;;;1999.90;999.90;;;;;;;26.46;27.91;101440.97;15536192;28;20049;-57
2022/03/28 12:43:27;;;;;;;1999.90;999.90;;;;;;;26.76;26.65;101431.63;15529963;28;20060;-60
2022/03/28 12:51:01;;;;;;;1999.90;999.90;;;;;;;27.56;25.88;101410.06;15511741;28;20050;-55
2022/03/28 12:58:36;;;;;;;1999.90;999.90;;;;;;;28.28;24.40;101390.44;15500837;28;20049;-58
2022/03/28 13:06:13;;;;;;;1999.90;999.90;;;;;;;30.97;22.41;101387.09;15541951;28;20100;-56
2022/03/28 13:13:47;;;;;;;1999.90;999.90;;;;;;;30.23;22.54;101372.81;15513839;28;20104;-58
2022/03/28 13:21:21;;;;;;;1999.90;999.90;;;;;;;30.96;22.29;101359.56;15542874;28;20041;-58
2022/03/28 13:28:53;;;;;;;1999.90;999.90;;;;;;;32.42;20.21;101345.16;15549077;28;20074;-56
2022/03/28 13:36:26;;;;;;;1999.90;999.90;;;;;;;33.96;18.62;101334.75;15525989;28;20137;-56
2022/03/28 13:43:58;;;;;;;1999.90;999.90;;;;;;;31.56;19.78;101327.13;15510387;28;20050;-58
2022/03/28 13:51:32;;;;;;;1999.90;999.90;;;;;;;29.00;22.97;101301.53;15535412;28;20119;-63
2022/03/28 13:59:06;;;;;;;1999.90;999.90;;;;;;;22.84;30.58;101281.44;15493997;23;20161;-75
2022/03/28 14:06:39;;;;;;;1999.90;999.90;;;;;;;22.79;29.95;101268.38;15368679;28;20113;-73
2022/03/28 14:14:14;;;;;;;1999.90;999.90;;;;;;;22.59;31.19;101241.50;15424151;28;20053;-74
2022/03/28 14:21:51;;;;;;;1999.90;999.90;;;;;;;22.39;30.41;101235.38;15377569;28;20137;-74
2022/03/28 14:29:24;;;;;;;1999.90;999.90;;;;;;;21.10;31.07;101222.44;15360558;28;20050;-74
2022/03/28 14:36:57;;;;;;;1999.90;999.90;;;;;;;21.03;31.82;101211.00;15374355;28;20543;-73
2022/03/28 14:44:29;;;;;;;1999.90;999.90;;;;;;;21.41;31.74;101209.72;15372249;28;20310;-74
2022/03/28 14:52:04;;;;;;;1999.90;999.90;;;;;;;20.97;32.68;101202.06;15410751;28;20049;-75
2022/03/28 14:59:37;;;;;;;1999.90;999.90;;;;;;;21.03;31.52;101185.47;15444979;28;20038;-74
2022/03/28 15:07:10;;;;;;;1999.90;999.90;;;;;;;21.03;31.08;101191.97;15368740;29;20126;-73
2022/03/28 15:14:42;;;;;;;1999.90;999.90;;;;;;;20.32;32.84;101165.78;15384670;28;20063;-74
2022/03/28 15:22:16;;;;;;;1999.90;999.90;;;;;;;20.15;33.24;101158.69;15368293;28;20415;-73
2022/03/28 15:29:49;;;;;;;1999.90;999.90;;;;;;;19.86;33.70;101156.72;15368808;28;20126;-73
2022/03/28 15:37:23;;;;;;;1999.90;999.90;;;;;;;20.32;33.85;101145.09;15351480;29;20047;-74
2022/03/28 15:44:55;;;;;;;1999.90;999.90;;;;;;;19.91;35.04;101128.09;15374077;28;20047;-74
2022/03/28 15:52:29;;;;;;;1999.90;999.90;;;;;;;19.79;35.84;101126.31;15368263;28;20058;-73
2022/03/28 16:00:01;;;;;;;1999.90;999.90;;;;;;;19.57;37.17;101111.06;15366797;28;20054;-72
2022/03/28 16:07:35;;;;;;;1999.90;999.90;;;;;;;19.21;36.25;101103.28;15350200;29;20043;-73
2022/03/28 16:15:09;;;;;;;1999.90;999.90;;;;;;;19.35;36.85;101100.66;15369589;28;20129;-73
2022/03/28 16:22:45;;;;;;;1999.90;999.90;;;;;;;18.54;37.67;101097.38;15366266;28;20090;-72
2022/03/28 16:30:17;;;;;;;1999.90;999.90;;;;;;;18.60;36.73;101079.72;15341828;28;20047;-72
2022/03/28 16:37:51;;;;;;;1999.90;999.90;;;;;;;18.61;37.10;101083.34;15347881;29;20117;-72
2022/03/28 16:45:23;;;;;;;1999.90;999.90;;;;;;;18.59;37.12;101071.63;15364566;28;20739;-72
2022/03/28 16:52:57;;;;;;;1999.90;999.90;;;;;;;18.36;37.66;101064.00;15363463;28;20039;-72
2022/03/28 17:00:29;;;;;;;1999.90;999.90;;;;;;;18.09;38.36;101057.44;15358303;28;20110;-72
2022/03/28 17:08:03;;;;;;;1999.90;999.90;;;;;;;17.85;39.51;101047.34;15346146;29;20051;-71
2022/03/28 17:15:37;;;;;;;1999.90;999.90;;;;;;;17.53;40.57;101043.06;15345016;28;20066;-72
2022/03/28 17:23:11;;;;;;;1999.90;999.90;;;;;;;17.18;41.43;101040.28;15364486;28;20055;-72
2022/03/28 17:30:43;;;;;;;1999.90;999.90;;;;;;;16.58;42.62;101040.53;15344527;28;20044;-72
2022/03/28 17:38:17;;;;;;;1999.90;999.90;;;;;;;16.59;42.62;101038.53;15362866;29;20497;-72
2022/03/28 17:45:51;;;;;;;1999.90;999.90;;;;;;;16.51;42.65;101029.09;15343379;28;20055;-74
2022/03/28 17:53:27;;;;;;;1999.90;999.90;;;;;;;16.21;43.30;101030.75;15363298;28;20583;-73
2022/03/28 18:00:59;;;;;;;1999.90;999.90;;;;;;;15.89;43.58;101033.56;15347940;28;20126;-74
2022/03/28 18:08:32;;;;;;;1999.90;999.90;;;;;;;15.82;43.90;101039.81;15348615;29;20082;-74
2022/03/28 18:16:05;;;;;;;1999.90;999.90;;;;;;;15.72;43.78;101042.31;15364265;28;20103;-73
2022/03/28 18:23:39;;;;;;;1999.90;999.90;;;;;;;15.44;44.42;101039.53;15362139;28;20071;-71
2022/03/28 18:31:11;;;;;;;1999.90;999.90;;;;;;;15.37;44.50;101040.13;15377292;28;20044;-71
2022/03/28 18:38:45;;;;;;;1999.90;999.90;;;;;;;15.26;44.96;101045.44;15340345;29;20047;-74
2022/03/28 18:46:18;;;;;;;1999.90;999.90;;;;;;;15.12;45.24;101045.03;15370168;29;20062;-72
2022/03/28 18:53:51;;;;;;;1999.90;999.90;;;;;;;14.78;46.04;101059.59;15374080;28;20130;-72
2022/03/28 19:01:24;;;;;;;1999.90;999.90;;;;;;;14.63;46.76;101067.59;15369611;28;20345;-73
2022/03/28 19:08:58;;;;;;;1999.90;999.90;;;;;;;14.71;46.50;101051.78;15372509;29;20043;-73
2022/03/28 19:16:32;;;;;;;1999.90;999.90;;;;;;;14.62;47.23;101060.34;15370522;28;20102;-74
2022/03/28 19:24:08;;;;;;;1999.90;999.90;;;;;;;14.07;49.37;101058.06;15363408;28;20130;-74
2022/03/28 19:31:40;;;;;;;1999.90;999.90;;;;;;;13.59;50.78;101059.56;15366498;28;20059;-73
2022/03/28 19:39:13;;;;;;;1999.90;999.90;;;;;;;13.55;50.80;101061.44;15375437;29;20115;-73
2022/03/28 19:46:46;;;;;;;;;;;;;;;13.34;51.08;101046.59;15374839;28;20383;-73
2022/03/28 19:54:19;;;;;;;1999.90;999.90;;;;;;;13.33;51.00;101036.56;15352494;28;19928;-74
2022/03/28 20:01:52;;;;;;;1999.90;999.90;;;;;;;13.19;51.08;101025.66;15364933;28;20054;-71
2022/03/28 20:09:25;;;;;;;1999.90;999.90;;;;;;;12.81;52.45;101028.56;15376736;28;20065;-71
2022/03/28 20:17:01;;;;;;;;;;;;;;;12.83;52.73;101015.06;15431385;23;20054;-58
2022/03/28 20:24:35;;;;;;;1999.90;999.90;;;;;;;12.64;53.15;101016.34;15437172;28;19980;-64
2022/03/28 20:32:08;;;;;;;;;;;;;;;12.43;53.53;101010.72;15428913;28;20050;-62
2022/03/28 20:39:45;;;;;;;1999.90;999.90;;;;;;;12.33;53.91;101013.88;15407447;28;20435;-61
2022/03/28 20:47:18;;;;;;;1999.90;999.90;;;;;;;12.21;54.68;101011.00;15407116;28;20477;-61
2022/03/28 20:54:52;;;;;;;1999.90;999.90;;;;;;;12.10;55.51;101006.94;15376018;28;20043;-65
2022/03/28 21:02:24;;;;;;;1999.90;999.90;;;;;;;11.97;55.51;101010.75;15490001;28;20042;-58
2022/03/28 21:09:58;;;;;;;1999.90;999.90;;;;;;;11.75;56.70;101011.81;15429568;28;20047;-61
2022/03/28 21:17:31;;;;;;;1999.90;999.90;;;;;;;11.47;57.50;101009.44;15435442;28;20094;-62
2022/03/28 21:25:06;;;;;;;1999.90;999.90;;;;;;;11.51;57.71;101004.81;15438145;28;20051;-62
2022/03/28 21:32:40;;;;;;;1999.90;999.90;;;;;;;11.23;58.61;100995.16;15449874;28;20459;-62
2022/03/28 21:40:14;;;;;;;1999.90;999.90;;;;;;;11.45;57.75;100997.75;15449420;28;20047;-61
2022/03/28 21:47:46;;;;;;;1999.90;999.90;;;;;;;11.22;58.22;100996.31;15390014;28;20047;-58
2022/03/28 21:55:21;;;;;;;1999.90;999.90;;;;;;;10.73;59.96;100989.25;15399124;28;20059;-60
2022/03/28 22:02:53;;;;;;;;;;;;;;;10.59;59.90;100993.03;15423237;28;20400;-60
2022/03/28 22:10:28;;;;;;;1999.90;999.90;;;;;;;10.44;60.65;100995.47;15446817;28;20335;-60
2022/03/28 22:18:01;;;;;;;1999.90;999.90;;;;;;;10.13;61.16;100991.59;15461346;28;20086;-61
2022/03/28 22:25:37;;;;;;;1999.90;999.90;;;;;;;10.18;61.40;100987.00;15459473;28;20635;-59
2022/03/28 22:33:10;;;;;;;1999.90;999.90;;;;;;;9.98;61.69;100985.63;15444491;28;20133;-61
2022/03/28 22:40:43;;;;;;;1999.90;999.90;;;;;;;9.53;63.44;100988.53;15444075;28;20078;-61
2022/03/28 22:48:19;;;;;;;;;;;;;;;10.19;61.06;100980.28;15443787;28;20518;-61
2022/03/28 22:55:59;;;;;;;1999.90;999.90;;;;;;;9.75;62.01;100977.34;15446001;28;19929;-60
2022/03/28 23:03:34;;;;;;;1999.90;999.90;;;;;;;9.90;61.57;100959.38;15472211;28;20537;-59
2022/03/28 23:11:07;;;;;;;1999.90;999.90;;;;;;;9.58;63.02;100948.56;15437586;28;20142;-59
2022/03/28 23:18:40;;;;;;;1999.90;999.90;;;;;;;9.57;62.72;100950.53;15443168;28;20053;-60
2022/03/28 23:26:13;;;;;;;1999.90;999.90;;;;;;;9.46;63.09;100947.19;15457376;28;20055;-60
2022/03/28 23:33:46;;;;;;;1999.90;999.90;;;;;;;9.39;63.16;100932.94;15457504;28;20038;-60
2022/03/28 23:41:19;;;;;;;1999.90;999.90;;;;;;;9.31;63.77;100927.31;15442274;28;20066;-60
2022/03/28 23:48:51;;;;;;;1999.90;999.90;;;;;;;9.13;63.84;100918.84;15442217;28;20038;-60
2022/03/28 23:56:28;;;;;;;1999.90;999.90;;;;;;;9.00;64.24;100924.50;15440857;28;20081;-60
